createdAt,value
2018-07-21T00:00:33.130Z,99666.98
2018-07-21T00:03:00.052Z,99668.30
2018-07-21T00:05:27.004Z,99676.78
2018-07-21T00:07:53.975Z,99671.61
2018-07-21T00:10:20.927Z,99674.59
2018-07-21T00:12:47.948Z,99672.56
2018-07-21T00:15:14.940Z,99683.39
2018-07-21T00:17:41.869Z,99673.60
2018-07-21T00:20:12.366Z,99677.77
2018-07-21T00:22:39.295Z,99680.59
2018-07-21T00:25:07.379Z,99684.91
2018-07-21T00:27:34.323Z,99683.40
2018-07-21T00:30:01.275Z,99685.14
2018-07-21T00:32:28.216Z,99691.23
2018-07-21T00:34:55.194Z,99684.56
2018-07-21T00:37:22.131Z,99684.95
2018-07-21T00:39:49.111Z,99688.07
2018-07-21T00:42:16.059Z,99687.27
2018-07-21T00:44:43.704Z,99682.48
2018-07-21T00:47:10.624Z,99685.73
2018-07-21T00:49:37.563Z,99681.06
2018-07-21T00:52:04.514Z,99686.52
2018-07-21T00:54:31.476Z,99680.02
2018-07-21T00:56:58.415Z,99688.98
2018-07-21T00:59:25.355Z,99677.49
2018-07-21T01:01:52.324Z,99672.84
2018-07-21T01:04:19.284Z,99667.56
2018-07-21T01:06:46.299Z,99666.09
2018-07-21T01:09:13.215Z,99667.70
2018-07-21T01:11:40.170Z,99661.38
2018-07-21T01:14:07.133Z,99657.92
2018-07-21T01:16:34.099Z,99660.80
2018-07-21T01:19:01.060Z,99662.87
2018-07-21T01:21:28.015Z,99663.16
2018-07-21T01:23:55.036Z,99668.27
2018-07-21T01:26:21.978Z,99667.00
2018-07-21T01:28:48.911Z,99658.89
2018-07-21T01:31:15.922Z,99653.77
2018-07-21T01:33:42.851Z,99656.38
2018-07-21T01:36:10.695Z,99660.86
2018-07-21T01:38:37.652Z,99658.08
2018-07-21T01:41:04.624Z,99656.55
2018-07-21T01:43:31.735Z,99654.88
2018-07-21T01:45:58.662Z,99650.86
2018-07-21T01:48:25.612Z,99652.98
2018-07-21T01:50:52.558Z,99645.57
2018-07-21T01:53:19.523Z,99648.84
2018-07-21T01:55:46.465Z,99645.39
2018-07-21T01:58:13.382Z,99641.95
2018-07-21T02:00:40.395Z,99645.11
2018-07-21T02:03:07.306Z,99641.57
2018-07-21T02:05:34.291Z,99638.58
2018-07-21T02:08:01.265Z,99633.07
2018-07-21T02:10:28.223Z,99631.72
2018-07-21T02:12:55.288Z,99631.28
2018-07-21T02:15:22.219Z,99634.59
2018-07-21T02:17:49.171Z,99639.78
2018-07-21T02:20:16.150Z,99638.35
2018-07-21T02:22:43.775Z,99636.55
2018-07-21T02:25:10.715Z,99634.63
2018-07-21T02:27:37.661Z,99637.16
2018-07-21T02:30:04.612Z,99633.83
2018-07-21T02:32:31.567Z,99637.20
2018-07-21T02:34:58.556Z,99640.50
2018-07-21T02:37:25.513Z,99638.10
2018-07-21T02:39:52.463Z,99636.97
2018-07-21T02:42:19.427Z,99641.92
2018-07-21T02:44:46.395Z,99635.20
2018-07-21T02:47:13.556Z,99636.52
2018-07-21T02:49:40.514Z,99636.75
2018-07-21T02:52:08.552Z,99636.55
2018-07-21T02:54:35.539Z,99635.95
2018-07-21T02:57:02.471Z,99639.11
2018-07-21T02:59:29.395Z,99632.28
2018-07-21T03:01:56.319Z,99636.06
2018-07-21T03:04:23.244Z,99638.73
2018-07-21T03:06:50.185Z,99642.03
2018-07-21T03:09:17.151Z,99638.93
2018-07-21T03:11:44.076Z,99634.72
2018-07-21T03:14:11.200Z,99636.69
2018-07-21T03:16:38.110Z,99631.28
2018-07-21T03:19:05.059Z,99630.09
2018-07-21T03:21:32.355Z,99635.03
2018-07-21T03:23:59.277Z,99641.05
2018-07-21T03:26:26.266Z,99640.95
2018-07-21T03:28:53.246Z,99641.92
2018-07-21T03:31:20.275Z,99646.00
2018-07-21T03:33:47.174Z,99641.52
2018-07-21T03:36:14.091Z,99645.99
2018-07-21T03:38:41.015Z,99649.32
2018-07-21T03:41:07.981Z,99649.03
2018-07-21T03:43:34.923Z,99647.38
2018-07-21T03:46:01.899Z,99646.09
2018-07-21T03:48:28.853Z,99653.23
2018-07-21T03:50:55.811Z,99657.44
2018-07-21T03:53:22.734Z,99662.79
2018-07-21T03:55:52.679Z,99658.06
2018-07-21T03:58:19.647Z,99661.48
2018-07-21T04:00:46.591Z,99654.36
2018-07-21T04:03:13.519Z,99652.23
2018-07-21T04:05:40.483Z,99661.64
2018-07-21T04:08:07.431Z,99664.86
2018-07-21T04:10:34.389Z,99662.64
2018-07-21T04:13:01.359Z,99664.89
2018-07-21T04:15:28.329Z,99656.56
2018-07-21T04:17:55.295Z,99656.98
2018-07-21T04:20:22.243Z,99656.48
2018-07-21T04:22:50.203Z,99665.71
2018-07-21T04:25:18.152Z,99657.55
2018-07-21T04:27:45.088Z,99656.91
2018-07-21T04:30:12.045Z,99659.16
2018-07-21T04:32:38.990Z,99663.86
2018-07-21T04:35:05.956Z,99665.83
2018-07-21T04:37:32.903Z,99669.94
2018-07-21T04:39:59.848Z,99673.47
2018-07-21T04:42:26.806Z,99684.60
2018-07-21T04:44:55.332Z,99687.66
2018-07-21T04:47:22.273Z,99694.27
2018-07-21T04:49:49.214Z,99701.49
2018-07-21T04:52:16.135Z,99701.95
2018-07-21T04:54:43.111Z,99699.94
2018-07-21T04:57:10.085Z,99695.86
2018-07-21T04:59:37.046Z,99705.14
2018-07-21T05:02:04.056Z,99704.56
2018-07-21T05:04:31.023Z,99700.10
2018-07-21T05:06:57.992Z,99695.59
2018-07-21T05:09:24.935Z,99705.74
2018-07-21T05:11:51.870Z,99699.55
2018-07-21T05:14:18.799Z,99708.51
2018-07-21T05:16:45.783Z,99708.23
2018-07-21T05:19:12.809Z,99716.26
2018-07-21T05:21:39.794Z,99711.12
2018-07-21T05:24:06.749Z,99721.88
2018-07-21T05:26:34.235Z,99719.71
2018-07-21T05:29:01.184Z,99723.28
2018-07-21T05:31:29.195Z,99722.52
2018-07-21T05:33:56.156Z,99720.74
2018-07-21T05:36:23.101Z,99722.52
2018-07-21T05:38:50.095Z,99727.56
2018-07-21T05:41:17.059Z,99733.50
2018-07-21T05:43:44.009Z,99742.54
2018-07-21T05:46:10.947Z,99740.58
2018-07-21T05:48:37.927Z,99745.28
2018-07-21T05:51:04.963Z,99744.41
2018-07-21T05:53:31.905Z,99750.13
2018-07-21T05:55:58.892Z,99747.50
2018-07-21T05:58:25.863Z,99748.89
2018-07-21T06:00:52.828Z,99750.08
2018-07-21T06:03:19.787Z,99750.22
2018-07-21T06:05:46.743Z,99747.47
2018-07-21T06:08:14.051Z,99754.41
2018-07-21T06:10:41.220Z,99759.91
2018-07-21T06:13:08.199Z,99757.36
2018-07-21T06:15:35.184Z,99766.63
2018-07-21T06:18:02.161Z,99759.93
2018-07-21T06:20:29.157Z,99764.69
2018-07-21T06:22:56.091Z,99766.91
2018-07-21T06:25:23.076Z,99767.28
2018-07-21T06:27:50.044Z,99776.38
2018-07-21T06:30:17.035Z,99779.61
2018-07-21T06:32:44.186Z,99779.52
2018-07-21T06:35:11.155Z,99780.04
2018-07-21T06:37:38.198Z,99781.49
2018-07-21T06:40:05.230Z,99785.72
2018-07-21T06:42:32.220Z,99789.60
2018-07-21T06:44:59.550Z,99790.44
2018-07-21T06:47:26.636Z,99791.09
2018-07-21T06:49:53.603Z,99793.48
2018-07-21T06:52:20.611Z,99796.30
2018-07-21T06:54:47.588Z,99797.47
2018-07-21T06:57:14.839Z,99797.89
2018-07-21T06:59:41.879Z,99799.27
2018-07-21T07:02:08.961Z,99799.23
2018-07-21T07:04:36.148Z,99792.36
2018-07-21T07:07:03.104Z,99794.15
2018-07-21T07:09:30.092Z,99804.59
2018-07-21T07:11:57.117Z,99804.75
2018-07-21T07:14:24.089Z,99800.28
2018-07-21T07:16:51.079Z,99800.94
2018-07-21T07:19:18.104Z,99809.59
2018-07-21T07:21:45.099Z,99806.14
2018-07-21T07:24:12.075Z,99807.98
2018-07-21T07:26:39.093Z,99807.97
2018-07-21T07:29:06.083Z,99808.20
2018-07-21T07:31:33.091Z,99803.20
2018-07-21T07:34:00.107Z,99801.88
2018-07-21T07:36:27.089Z,99805.99
2018-07-21T07:38:54.072Z,99803.58
2018-07-21T07:41:21.099Z,99808.86
2018-07-21T07:43:48.080Z,99811.72
2018-07-21T07:46:15.085Z,99818.32
2018-07-21T07:48:42.080Z,99818.42
2018-07-21T07:51:09.186Z,99817.53
2018-07-21T07:53:36.135Z,99816.11
2018-07-21T07:56:03.127Z,99822.33
2018-07-21T07:58:30.408Z,99824.45
2018-07-21T08:00:57.446Z,99826.58
2018-07-21T08:03:24.559Z,99838.22
2018-07-21T08:05:51.563Z,99833.14
2018-07-21T08:08:18.614Z,99840.80
2018-07-21T08:10:45.539Z,99847.56
2018-07-21T08:13:13.544Z,99845.78
2018-07-21T08:15:40.605Z,99841.23
2018-07-21T08:18:10.642Z,99849.09
2018-07-21T08:20:37.624Z,99851.28
2018-07-21T08:23:04.647Z,99852.09
2018-07-21T08:25:31.640Z,99855.03
2018-07-21T08:27:58.652Z,99853.27
2018-07-21T08:30:25.683Z,99851.89
2018-07-21T08:32:52.691Z,99857.69
2018-07-21T08:35:19.736Z,99855.57
2018-07-21T08:37:46.723Z,99859.45
2018-07-21T08:40:13.708Z,99857.31
2018-07-21T08:42:40.732Z,99865.48
2018-07-21T08:45:08.198Z,99857.54
2018-07-21T08:47:35.171Z,99865.67
2018-07-21T08:50:02.172Z,99864.00
2018-07-21T08:52:29.203Z,99867.73
2018-07-21T08:54:56.176Z,99870.67
2018-07-21T08:57:23.224Z,99865.00
2018-07-21T08:59:50.418Z,99869.35
2018-07-21T09:02:17.380Z,99871.97
2018-07-21T09:04:44.439Z,99869.76
2018-07-21T09:07:11.428Z,99873.37
2018-07-21T09:09:38.479Z,99878.37
2018-07-21T09:12:06.507Z,99880.25
2018-07-21T09:14:33.508Z,99877.09
2018-07-21T09:17:00.496Z,99877.48
2018-07-21T09:19:27.495Z,99881.55
2018-07-21T09:21:54.667Z,99877.70
2018-07-21T09:24:21.694Z,99874.45
2018-07-21T09:26:48.695Z,99879.03
2018-07-21T09:29:16.700Z,99871.80
2018-07-21T09:31:45.659Z,99877.44
2018-07-21T09:34:12.702Z,99878.33
2018-07-21T09:36:39.676Z,99877.13
2018-07-21T09:39:08.236Z,99881.52
2018-07-21T09:41:35.288Z,99887.91
2018-07-21T09:44:02.339Z,99889.41
2018-07-21T09:46:29.340Z,99890.14
2018-07-21T09:48:56.336Z,99883.38
2018-07-21T09:51:24.445Z,99883.02
2018-07-21T09:53:51.491Z,99882.23
2018-07-21T09:56:18.503Z,99882.40
2018-07-21T09:58:45.476Z,99886.61
2018-07-21T10:01:12.927Z,99885.17
2018-07-21T10:03:40.011Z,99885.39
2018-07-21T10:06:07.025Z,99891.58
2018-07-21T10:08:34.015Z,99889.06
2018-07-21T10:11:01.035Z,99890.34
2018-07-21T10:13:28.030Z,99892.23
2018-07-21T10:15:55.011Z,99894.41
2018-07-21T10:18:22.000Z,99896.89
2018-07-21T10:20:49.057Z,99897.18
2018-07-21T10:23:16.083Z,99899.12
2018-07-21T10:25:48.666Z,99899.60
2018-07-21T10:28:22.288Z,99901.74
2018-07-21T10:30:49.144Z,99899.20
2018-07-21T10:33:16.146Z,99906.46
2018-07-21T10:35:43.116Z,99897.91
2018-07-21T10:38:10.268Z,99900.94
2018-07-21T10:40:37.266Z,99894.17
2018-07-21T10:43:04.299Z,99895.67
2018-07-21T10:45:31.360Z,99895.19
2018-07-21T10:47:58.391Z,99896.71
2018-07-21T10:50:25.376Z,99889.78
2018-07-21T10:52:52.392Z,99891.81
2018-07-21T10:55:23.283Z,99888.89
2018-07-21T10:57:50.658Z,99881.03
2018-07-21T11:00:17.713Z,99884.06
2018-07-21T11:02:44.718Z,99889.95
2018-07-21T11:05:11.711Z,99879.45
2018-07-21T11:07:38.869Z,99879.41
2018-07-21T11:10:05.867Z,99874.90
2018-07-21T11:12:32.857Z,99870.48
2018-07-21T11:14:59.855Z,99871.77
2018-07-21T11:17:26.857Z,99864.95
2018-07-21T11:19:53.822Z,99866.06
2018-07-21T11:22:20.830Z,99862.67
2018-07-21T11:24:50.824Z,99862.36
2018-07-21T11:27:17.817Z,99863.73
2018-07-21T11:29:44.855Z,99858.36
2018-07-21T11:32:11.839Z,99856.47
2018-07-21T11:34:38.870Z,99854.08
2018-07-21T11:37:06.024Z,99854.26
2018-07-21T11:39:33.007Z,99863.55
2018-07-21T11:42:00.016Z,99867.51
2018-07-21T11:44:27.919Z,99869.55
2018-07-21T11:46:54.856Z,99861.05
2018-07-21T11:49:21.867Z,99862.86
2018-07-21T11:51:48.865Z,99859.84
2018-07-21T11:54:15.902Z,99850.22
2018-07-21T11:56:42.985Z,99854.38
2018-07-21T11:59:10.032Z,99854.59
2018-07-21T12:01:37.279Z,99855.25
2018-07-21T12:04:04.308Z,99848.96
2018-07-21T12:06:31.326Z,99846.13
2018-07-21T12:08:58.310Z,99847.20
2018-07-21T12:11:25.403Z,99838.22
2018-07-21T12:13:52.474Z,99841.38
2018-07-21T12:16:19.457Z,99825.55
2018-07-21T12:18:46.449Z,99836.27
2018-07-21T12:21:13.544Z,99832.57
2018-07-21T12:23:40.606Z,99829.98
2018-07-21T12:26:07.614Z,99823.68
2018-07-21T12:28:34.604Z,99820.83
2018-07-21T12:31:01.665Z,99811.87
2018-07-21T12:33:28.707Z,99808.19
2018-07-21T12:35:55.704Z,99814.50
2018-07-21T12:38:22.698Z,99809.44
2018-07-21T12:40:49.720Z,99808.35
2018-07-21T12:43:16.771Z,99809.06
2018-07-21T12:45:43.787Z,99812.63
2018-07-21T12:48:10.855Z,99813.56
2018-07-21T12:50:37.870Z,99813.38
2018-07-21T12:53:04.907Z,99811.28
2018-07-21T12:55:31.949Z,99807.03
2018-07-21T12:57:59.021Z,99802.55
2018-07-21T13:00:26.700Z,99800.81
2018-07-21T13:02:53.709Z,99793.16
2018-07-21T13:05:20.691Z,99792.70
2018-07-21T13:07:47.675Z,99791.52
2018-07-21T13:10:14.668Z,99801.13
2018-07-21T13:12:41.721Z,99809.59
2018-07-21T13:15:08.803Z,99803.89
2018-07-21T13:17:35.814Z,99808.38
2018-07-21T13:20:02.859Z,99801.70
2018-07-21T13:22:29.880Z,99798.77
2018-07-21T13:24:57.012Z,99800.17
2018-07-21T13:27:24.007Z,99796.69
2018-07-21T13:29:51.024Z,99792.66
2018-07-21T13:32:18.074Z,99802.85
2018-07-21T13:34:45.325Z,99799.64
2018-07-21T13:37:12.369Z,99808.14
2018-07-21T13:39:39.379Z,99821.48
2018-07-21T13:42:06.375Z,99817.93
2018-07-21T13:44:33.366Z,99825.30
2018-07-21T13:47:00.369Z,99817.37
2018-07-21T13:49:27.498Z,99815.38
2018-07-21T13:51:54.532Z,99816.09
2018-07-21T13:54:21.518Z,99815.62
2018-07-21T13:56:48.507Z,99820.39
2018-07-21T13:59:16.320Z,99814.25
2018-07-21T14:01:43.307Z,99822.95
2018-07-21T14:04:10.295Z,99831.06
2018-07-21T14:06:37.311Z,99833.31
2018-07-21T14:09:06.326Z,99841.64
2018-07-21T14:11:33.307Z,99862.30
2018-07-21T14:14:00.290Z,99863.31
2018-07-21T14:16:27.283Z,99867.68
2018-07-21T14:18:54.511Z,99865.15
2018-07-21T14:21:21.523Z,99868.94
2018-07-21T14:23:48.572Z,99865.64
2018-07-21T14:26:15.506Z,99872.50
2018-07-21T14:28:43.286Z,99877.74
2018-07-21T14:31:10.283Z,99889.56
2018-07-21T14:33:37.279Z,99895.72
2018-07-21T14:36:04.755Z,99897.82
2018-07-21T14:38:31.962Z,99907.40
2018-07-21T14:40:58.935Z,99914.58
2018-07-21T14:43:26.008Z,99923.02
2018-07-21T14:45:53.012Z,99926.64
2018-07-21T14:48:20.012Z,99925.92
2018-07-21T15:01:49.349Z,99897.52
2018-07-21T15:04:16.381Z,99911.57
2018-07-21T15:06:43.538Z,99918.76
2018-07-21T15:09:11.984Z,99923.49
2018-07-21T15:11:40.231Z,99927.98
2018-07-21T15:14:07.416Z,99929.34
2018-07-21T15:16:35.743Z,99930.38
2018-07-21T15:19:03.364Z,99930.30
2018-07-21T15:21:31.324Z,99920.35
2018-07-21T15:24:03.281Z,99929.28
2018-07-21T15:26:31.300Z,99925.63
2018-07-21T15:29:01.336Z,99924.77
2018-07-21T15:31:29.406Z,99918.44
2018-07-21T15:33:56.580Z,99913.08
2018-07-21T15:36:24.564Z,99902.46
2018-07-21T15:38:52.425Z,99899.81
2018-07-21T15:41:19.476Z,99901.23
2018-07-21T15:43:46.594Z,99904.56
2018-07-21T15:46:13.736Z,99894.10
2018-07-21T15:48:43.399Z,99899.47
2018-07-21T15:51:10.554Z,99898.33
2018-07-21T15:53:38.437Z,99894.73
2018-07-21T15:56:07.524Z,99891.08
2018-07-21T15:58:34.742Z,99890.23
2018-07-21T16:01:01.820Z,99887.98
2018-07-21T16:03:33.380Z,99887.09
2018-07-21T16:06:01.373Z,99878.45
2018-07-21T16:08:28.484Z,99883.24
2018-07-21T16:10:55.552Z,99881.77
2018-07-21T16:13:22.616Z,99877.52
2018-07-21T16:15:50.502Z,99875.96
2018-07-21T16:18:20.484Z,99874.87
2018-07-21T16:20:48.572Z,99876.06
2018-07-21T16:23:15.634Z,99878.77
2018-07-21T16:25:43.021Z,99878.03
2018-07-21T16:28:10.148Z,99878.74
2018-07-21T16:30:37.816Z,99878.76
2018-07-21T16:33:06.874Z,99875.38
2018-07-21T16:35:34.001Z,99883.58
2018-07-21T16:38:01.138Z,99890.20
2018-07-21T16:40:29.212Z,99891.52
2018-07-21T16:42:56.294Z,99889.41
2018-07-21T16:45:24.408Z,99890.94
2018-07-21T16:47:51.508Z,99888.31
2018-07-21T16:50:18.627Z,99883.01
2018-07-21T16:52:47.368Z,99876.34
2018-07-21T16:55:14.481Z,99876.87
2018-07-21T16:57:41.712Z,99874.61
2018-07-21T17:00:08.999Z,99878.84
2018-07-21T17:02:36.195Z,99881.41
2018-07-21T17:05:05.012Z,99877.58
2018-07-21T17:07:33.840Z,99867.96
2018-07-21T17:10:00.989Z,99874.86
2018-07-21T17:12:29.072Z,99866.05
2018-07-21T17:14:56.911Z,99863.07
2018-07-21T17:17:24.024Z,99859.31
2018-07-21T17:19:52.924Z,99864.37
2018-07-21T17:22:21.908Z,99861.86
2018-07-21T17:24:48.963Z,99858.94
2018-07-21T17:29:44.032Z,99863.25
2018-07-21T17:32:11.976Z,99860.18
2018-07-21T17:34:39.159Z,99860.03
2018-07-21T17:37:06.241Z,99855.48
2018-07-21T17:39:35.912Z,99863.27
2018-07-21T17:42:04.016Z,99856.58
2018-07-21T17:44:32.076Z,99853.55
2018-07-21T17:46:59.149Z,99858.03
2018-07-21T17:49:27.228Z,99861.08
2018-07-21T17:52:02.112Z,99862.45
2018-07-21T17:54:30.937Z,99859.66
2018-07-21T17:56:59.944Z,99869.34
2018-07-21T17:59:27.929Z,99866.86
2018-07-21T18:01:55.003Z,99876.16
2018-07-21T18:04:22.079Z,99875.72
2018-07-21T18:06:49.172Z,99872.81
2018-07-21T18:09:16.213Z,99876.33
2018-07-21T18:11:43.376Z,99877.65
2018-07-21T18:14:10.626Z,99878.15
2018-07-21T18:16:37.751Z,99874.86
2018-07-21T18:19:05.305Z,99872.04
2018-07-21T18:21:32.376Z,99876.11
2018-07-21T18:23:59.680Z,99874.39
2018-07-21T18:26:27.605Z,99876.63
2018-07-21T18:28:54.813Z,99875.52
2018-07-21T18:31:23.577Z,99869.28
2018-07-21T18:33:55.779Z,99871.34
2018-07-21T18:36:23.447Z,99868.78
2018-07-21T18:38:51.531Z,99873.45
2018-07-21T18:41:18.635Z,99871.45
2018-07-21T18:43:46.400Z,99875.30
2018-07-21T18:46:20.409Z,99872.22
2018-07-21T18:48:47.557Z,99876.37
2018-07-21T18:51:14.719Z,99870.86
2018-07-21T18:53:44.917Z,99877.87
2018-07-21T18:56:12.020Z,99870.86
2018-07-21T18:58:40.097Z,99871.75
2018-07-21T19:01:07.824Z,99872.19
2018-07-21T19:03:36.648Z,99863.12
2018-07-21T19:06:03.809Z,99869.95
2018-07-21T19:08:36.533Z,99866.05
2018-07-21T19:11:04.732Z,99866.72
2018-07-21T19:13:31.844Z,99869.88
2018-07-21T19:16:06.432Z,99874.13
2018-07-21T19:18:34.069Z,99868.62
2018-07-21T19:21:06.940Z,99870.35
2018-07-21T19:23:35.010Z,99866.91
2018-07-21T19:26:10.720Z,99873.88
2018-07-21T19:28:38.590Z,99870.42
2018-07-21T19:31:10.636Z,99873.36
2018-07-21T19:33:38.793Z,99869.50
2018-07-21T19:36:09.664Z,99873.51
2018-07-21T19:38:36.809Z,99875.71
2018-07-21T19:41:10.828Z,99877.58
2018-07-21T19:43:38.500Z,99897.17
2018-07-21T19:46:07.637Z,99908.83
2018-07-21T19:48:34.688Z,99913.45
2018-07-21T19:51:02.947Z,99906.00
2018-07-21T19:53:33.488Z,99902.81
2018-07-21T19:56:00.952Z,99908.66
2018-07-21T19:58:32.129Z,99901.34
2018-07-21T20:02:58.006Z,99911.05
2018-07-21T20:05:26.112Z,99911.84
2018-07-21T20:07:55.119Z,99905.97
2018-07-21T20:10:23.181Z,99904.31
2018-07-21T20:12:50.293Z,99913.20
2018-07-21T20:15:17.366Z,99912.31
2018-07-21T20:17:47.105Z,99914.25
2018-07-21T20:20:14.124Z,99910.05
2018-07-21T20:22:41.261Z,99916.58
2018-07-21T20:25:08.326Z,99914.56
2018-07-21T20:27:35.454Z,99911.45
2018-07-21T20:30:04.653Z,99914.81
2018-07-21T20:32:34.563Z,99914.58
2018-07-21T20:35:02.566Z,99917.30
2018-07-21T20:37:30.532Z,99917.48
2018-07-21T20:40:04.945Z,99926.55
2018-07-21T20:42:32.202Z,99925.08
2018-07-21T20:44:59.392Z,99924.95
2018-07-21T20:47:26.523Z,99927.00
2018-07-21T20:49:53.607Z,99930.40
2018-07-21T20:52:24.149Z,99927.55
2018-07-21T20:54:51.356Z,99935.03
2018-07-21T20:57:18.452Z,99937.64
2018-07-21T20:59:45.708Z,99934.03
2018-07-21T21:02:14.820Z,99937.86
2018-07-21T21:04:45.684Z,99935.36
2018-07-21T21:07:15.656Z,99933.09
2018-07-21T21:09:43.740Z,99939.91
2018-07-21T21:12:14.591Z,99936.78
2018-07-21T21:14:42.554Z,99940.06
2018-07-21T21:17:09.708Z,99946.45
2018-07-21T21:19:38.836Z,99943.59
2018-07-21T21:22:06.097Z,99942.95
2018-07-21T21:24:33.119Z,99944.38
2018-07-21T21:27:02.163Z,99940.53
2018-07-21T21:29:30.103Z,99945.67
2018-07-21T21:31:57.168Z,99941.66
2018-07-21T21:34:25.133Z,99940.27
2018-07-21T21:36:54.215Z,99940.00
2018-07-21T21:39:24.650Z,99946.55
2018-07-21T21:41:53.121Z,99944.24
2018-07-21T21:44:21.776Z,99942.14
2018-07-21T21:46:49.540Z,99944.76
2018-07-21T21:49:16.643Z,99944.45
2018-07-21T21:51:44.605Z,99946.91
2018-07-21T21:54:12.629Z,99949.47
2018-07-21T21:56:39.695Z,99943.08
2018-07-21T21:59:06.948Z,99946.89
2018-07-21T22:01:37.838Z,99942.67
2018-07-21T22:04:06.695Z,99942.27
2018-07-21T22:06:33.716Z,99947.09
2018-07-21T22:09:07.612Z,99951.94
2018-07-21T22:11:35.792Z,99948.41
2018-07-21T22:14:02.904Z,99945.80
2018-07-21T22:16:30.011Z,99946.00
2018-07-21T22:19:00.978Z,99950.80
2018-07-21T22:21:29.588Z,99956.48
2018-07-21T22:23:58.590Z,99950.28
2018-07-21T22:26:26.697Z,99957.19
2018-07-21T22:28:53.789Z,99956.88
2018-07-21T22:31:21.140Z,99956.02
2018-07-21T22:33:48.228Z,99955.37
2018-07-21T22:36:15.304Z,99957.88
2018-07-21T22:38:43.081Z,99959.41
2018-07-21T22:41:10.357Z,99964.91
2018-07-21T22:43:37.453Z,99958.84
2018-07-21T22:46:04.628Z,99957.45
2018-07-21T22:48:36.732Z,99955.57
2018-07-21T22:51:05.810Z,99957.50
2018-07-21T22:53:32.900Z,99955.83
2018-07-21T22:55:59.924Z,99959.06
2018-07-21T22:58:28.104Z,99968.08
2018-07-21T23:00:56.132Z,99959.20
2018-07-21T23:03:23.128Z,99959.31
2018-07-21T23:05:51.200Z,99961.33
2018-07-21T23:08:23.501Z,99963.83
2018-07-21T23:10:51.088Z,99962.45
2018-07-21T23:13:21.392Z,99957.81
2018-07-21T23:15:50.168Z,99956.92
2018-07-21T23:18:17.336Z,99956.33
2018-07-21T23:20:46.175Z,99951.00
2018-07-21T23:23:13.233Z,99949.38
2018-07-21T23:25:40.569Z,99953.14
2018-07-21T23:28:07.802Z,99956.77
2018-07-21T23:30:35.579Z,99960.25
2018-07-21T23:33:02.700Z,99962.59
2018-07-21T23:35:30.606Z,99964.66
2018-07-21T23:37:57.580Z,99960.25
2018-07-21T23:40:25.179Z,99960.42
2018-07-21T23:42:54.099Z,99960.84
2018-07-21T23:45:22.760Z,99955.77
2018-07-21T23:47:49.836Z,99959.48
2018-07-21T23:50:20.645Z,99961.48
2018-07-21T23:52:47.656Z,99957.52
2018-07-21T23:55:14.744Z,99958.25
2018-07-21T23:57:41.794Z,99948.30
